createdAt,value
2018-08-06T00:01:13.163Z,17.29
2018-08-06T00:02:35.119Z,17.24
2018-08-06T00:03:35.695Z,17.29
2018-08-06T00:04:35.067Z,17.31
2018-08-06T00:05:35.483Z,17.34
2018-08-06T00:06:35.132Z,17.36
2018-08-06T00:07:35.510Z,17.36
2018-08-06T00:08:57.489Z,17.36
2018-08-06T00:10:19.282Z,17.41
2018-08-06T00:11:19.558Z,17.44
2018-08-06T00:12:41.386Z,17.45
2018-08-06T00:13:42.011Z,17.36
2018-08-06T00:14:41.509Z,17.24
2018-08-06T00:15:41.914Z,17.14
2018-08-06T00:16:42.349Z,17.15
2018-08-06T00:17:41.896Z,17.15
2018-08-06T00:18:41.455Z,17.20
2018-08-06T00:20:03.306Z,17.20
2018-08-06T00:21:25.571Z,17.20
2018-08-06T00:22:26.161Z,17.23
2018-08-06T00:23:46.891Z,17.23
2018-08-06T00:24:47.581Z,17.22
2018-08-06T00:25:47.089Z,17.24
2018-08-06T00:26:47.935Z,17.26
2018-08-06T00:27:47.650Z,17.26
2018-08-06T00:28:47.228Z,17.24
2018-08-06T00:29:47.756Z,17.20
2018-08-06T00:30:47.263Z,17.15
2018-08-06T00:31:47.667Z,17.15
2018-08-06T00:32:47.046Z,17.16
2018-08-06T00:33:47.540Z,17.14
2018-08-06T00:34:47.016Z,17.04
2018-08-06T00:35:47.506Z,16.94
2018-08-06T00:37:08.589Z,16.97
2018-08-06T00:38:09.259Z,16.97
2018-08-06T00:39:08.922Z,16.99
2018-08-06T00:40:08.322Z,17.01
2018-08-06T00:41:08.762Z,16.96
2018-08-06T00:42:30.420Z,16.90
2018-08-06T00:43:30.766Z,16.87
2018-08-06T00:44:31.089Z,16.79
2018-08-06T00:45:30.695Z,16.72
2018-08-06T00:46:31.160Z,16.65
2018-08-06T00:47:30.712Z,16.64
2018-08-06T00:48:31.383Z,16.64
2018-08-06T00:49:30.781Z,16.60
2018-08-06T00:50:31.226Z,16.56
2018-08-06T00:51:30.887Z,16.43
2018-08-06T00:52:31.499Z,16.41
2018-08-06T00:53:30.770Z,16.36
2018-08-06T00:54:31.338Z,16.38
2018-08-06T00:55:30.814Z,16.38
2018-08-06T00:57:14.066Z,16.36
2018-08-06T00:58:14.566Z,16.43
2018-08-06T00:59:36.565Z,16.53
2018-08-06T01:00:36.907Z,16.50
2018-08-06T01:01:37.413Z,16.50
2018-08-06T01:02:37.241Z,16.49
2018-08-06T01:03:36.807Z,16.49
2018-08-06T01:04:37.570Z,16.51
2018-08-06T01:05:37.184Z,16.47
2018-08-06T01:06:58.090Z,16.43
2018-08-06T01:07:58.715Z,16.42
2018-08-06T01:09:20.303Z,16.41
2018-08-06T01:10:42.249Z,16.33
2018-08-06T01:11:42.769Z,16.29
2018-08-06T01:12:42.215Z,16.26
2018-08-06T01:13:42.713Z,16.29
2018-08-06T01:14:42.515Z,16.29
2018-08-06T01:15:43.044Z,16.29
2018-08-06T01:16:42.702Z,16.32
2018-08-06T01:17:42.264Z,16.35
2018-08-06T01:18:43.027Z,16.38
2018-08-06T01:19:42.752Z,16.38
2018-08-06T01:20:42.529Z,16.33
2018-08-06T01:21:42.389Z,16.28
2018-08-06T01:22:43.176Z,16.26
2018-08-06T01:24:03.904Z,16.23
2018-08-06T01:25:07.448Z,16.20
2018-08-06T01:26:04.095Z,16.17
2018-08-06T01:27:04.930Z,16.13
2018-08-06T01:28:04.890Z,16.13
2018-08-06T01:29:04.629Z,16.13
2018-08-06T01:30:04.261Z,16.10
2018-08-06T01:31:04.090Z,16.09
2018-08-06T01:32:04.209Z,16.09
2018-08-06T01:33:03.940Z,16.12
2018-08-06T01:34:04.661Z,16.10
2018-08-06T01:35:04.217Z,16.08
2018-08-06T01:36:03.885Z,16.04
2018-08-06T01:37:04.571Z,16.04
2018-08-06T01:38:04.613Z,16.04
2018-08-06T01:39:04.085Z,16.01
2018-08-06T01:40:04.618Z,16.04
2018-08-06T01:41:04.251Z,16.02
2018-08-06T01:42:03.956Z,16.02
2018-08-06T01:43:04.965Z,16.01
2018-08-06T01:44:04.452Z,15.98
2018-08-06T01:45:04.004Z,15.97
2018-08-06T01:46:24.737Z,15.94
2018-08-06T01:47:25.592Z,15.95
2018-08-06T01:48:25.225Z,15.97
2018-08-06T01:49:24.753Z,15.94
2018-08-06T01:50:46.688Z,15.97
2018-08-06T01:51:47.433Z,15.98
2018-08-06T01:52:47.245Z,15.98
2018-08-06T01:53:46.900Z,16.00
2018-08-06T01:54:47.300Z,16.00
2018-08-06T01:55:46.755Z,16.00
2018-08-06T01:56:47.107Z,15.98
2018-08-06T01:57:47.709Z,15.95
2018-08-06T01:58:47.412Z,15.94
2018-08-06T01:59:47.042Z,15.90
2018-08-06T02:00:47.660Z,15.83
2018-08-06T02:01:47.165Z,15.86
2018-08-06T02:02:47.268Z,15.90
2018-08-06T02:03:46.840Z,15.88
2018-08-06T02:05:10.211Z,15.88
2018-08-06T02:06:09.760Z,15.83
2018-08-06T02:07:09.482Z,15.84
2018-08-06T02:08:31.289Z,15.90
2018-08-06T02:09:31.959Z,15.90
2018-08-06T02:10:31.856Z,15.88
2018-08-06T02:11:31.332Z,15.86
2018-08-06T02:12:53.121Z,15.90
2018-08-06T02:14:14.906Z,15.90
2018-08-06T02:15:15.520Z,15.88
2018-08-06T02:16:14.914Z,15.91
2018-08-06T02:17:15.428Z,15.91
2018-08-06T02:18:14.919Z,15.91
2018-08-06T02:19:15.386Z,15.91
2018-08-06T02:20:36.367Z,15.90
2018-08-06T02:21:37.040Z,15.86
2018-08-06T02:22:57.912Z,15.80
2018-08-06T02:23:58.743Z,15.83
2018-08-06T02:24:58.639Z,15.84
2018-08-06T02:25:58.396Z,15.86
2018-08-06T02:26:58.135Z,15.83
2018-08-06T02:27:58.021Z,15.83
2018-08-06T02:28:58.939Z,15.84
2018-08-06T02:30:20.074Z,15.88
2018-08-06T02:31:20.592Z,15.88
2018-08-06T02:32:20.037Z,15.84
2018-08-06T02:34:03.756Z,15.82
2018-08-06T02:35:04.413Z,15.75
2018-08-06T02:36:04.212Z,15.72
2018-08-06T02:37:03.688Z,15.73
2018-08-06T02:38:04.326Z,15.79
2018-08-06T02:39:03.711Z,15.79
2018-08-06T02:40:04.391Z,15.80
2018-08-06T02:41:03.986Z,15.82
2018-08-06T02:42:03.634Z,15.79
2018-08-06T02:43:04.598Z,15.77
2018-08-06T02:44:04.109Z,15.77
2018-08-06T02:45:03.838Z,15.73
2018-08-06T02:46:03.426Z,15.73
2018-08-06T02:47:04.044Z,15.72
2018-08-06T02:48:03.722Z,15.68
2018-08-06T02:49:04.292Z,15.67
2018-08-06T02:50:03.793Z,15.65
2018-08-06T02:51:04.422Z,15.68
2018-08-06T02:52:25.303Z,15.73
2018-08-06T02:53:25.902Z,15.76
2018-08-06T02:54:25.330Z,15.76
2018-08-06T02:55:47.142Z,15.70
2018-08-06T02:56:47.818Z,15.72
2018-08-06T02:57:47.101Z,15.72
2018-08-06T02:58:47.666Z,15.70
2018-08-06T02:59:46.950Z,15.72
2018-08-06T03:00:47.732Z,15.68
2018-08-06T03:01:47.061Z,15.68
2018-08-06T03:02:47.540Z,15.62
2018-08-06T03:03:47.070Z,15.62
2018-08-06T03:04:47.716Z,15.61
2018-08-06T03:05:47.006Z,15.57
2018-08-06T03:06:47.778Z,15.57
2018-08-06T03:07:47.389Z,15.54
2018-08-06T03:08:47.869Z,15.55
2018-08-06T03:09:47.258Z,15.57
2018-08-06T03:10:48.001Z,15.58
2018-08-06T03:11:47.288Z,15.59
2018-08-06T03:12:47.774Z,15.61
2018-08-06T03:14:08.461Z,15.59
2018-08-06T03:15:08.785Z,15.58
2018-08-06T03:16:30.470Z,15.59
2018-08-06T03:17:30.861Z,15.58
2018-08-06T03:18:31.272Z,15.58
2018-08-06T03:19:52.209Z,15.58
2018-08-06T03:20:52.486Z,15.57
2018-08-06T03:21:53.406Z,15.61
2018-08-06T03:22:52.839Z,15.61
2018-08-06T03:23:52.422Z,15.61
2018-08-06T03:25:14.415Z,15.59
2018-08-06T03:26:14.951Z,15.58
2018-08-06T03:27:14.801Z,15.59
2018-08-06T03:28:14.541Z,15.59
2018-08-06T03:29:14.914Z,15.58
2018-08-06T03:30:14.554Z,15.55
2018-08-06T03:31:15.178Z,15.54
2018-08-06T03:32:14.585Z,15.47
2018-08-06T03:33:14.951Z,15.51
2018-08-06T03:34:14.285Z,15.57
2018-08-06T03:35:35.950Z,15.61
2018-08-06T03:36:36.540Z,15.55
2018-08-06T03:37:36.080Z,15.54
2018-08-06T03:38:36.629Z,15.55
2018-08-06T03:39:35.962Z,15.58
2018-08-06T03:40:58.229Z,15.58
2018-08-06T03:41:58.813Z,15.64
2018-08-06T03:42:58.404Z,15.70
2018-08-06T03:43:59.067Z,15.68
2018-08-06T03:44:59.010Z,15.67
2018-08-06T03:45:59.036Z,15.68
2018-08-06T03:46:58.722Z,15.68
2018-08-06T03:48:41.351Z,15.67
2018-08-06T03:49:42.221Z,15.65
2018-08-06T03:51:03.606Z,15.64
2018-08-06T03:52:04.212Z,15.62
2018-08-06T03:53:25.106Z,15.59
2018-08-06T03:54:25.510Z,15.57
2018-08-06T03:55:25.051Z,15.55
2018-08-06T03:56:46.788Z,15.54
2018-08-06T03:57:47.115Z,15.54
2018-08-06T03:58:47.565Z,15.51
2018-08-06T03:59:59.803Z,15.51
2018-08-06T04:01:11.841Z,15.47
2018-08-06T04:02:54.727Z,15.46
2018-08-06T04:03:55.133Z,15.46
2018-08-06T04:04:55.651Z,15.47
2018-08-06T04:06:16.540Z,15.47
2018-08-06T04:07:17.091Z,15.42
2018-08-06T04:08:16.800Z,15.37
2018-08-06T04:09:17.329Z,15.40
2018-08-06T04:10:16.777Z,15.39
2018-08-06T04:11:17.443Z,15.37
2018-08-06T04:12:17.024Z,15.39
2018-08-06T04:13:16.574Z,15.33
2018-08-06T04:14:17.100Z,15.33
2018-08-06T04:15:16.960Z,15.31
2018-08-06T04:16:17.527Z,15.22
2018-08-06T04:17:17.185Z,15.19
2018-08-06T04:18:16.786Z,15.18
2018-08-06T04:19:17.487Z,15.15
2018-08-06T04:20:38.449Z,15.15
2018-08-06T04:21:39.371Z,15.19
2018-08-06T04:22:38.815Z,15.22
2018-08-06T04:23:39.200Z,15.21
2018-08-06T04:24:38.893Z,15.24
2018-08-06T04:25:38.341Z,15.27
2018-08-06T04:27:21.587Z,15.25
2018-08-06T04:28:22.288Z,15.25
2018-08-06T04:29:22.011Z,15.28
2018-08-06T04:30:21.902Z,15.27
2018-08-06T04:31:22.400Z,15.27
2018-08-06T04:32:22.252Z,15.21
2018-08-06T04:33:43.374Z,15.19
2018-08-06T04:34:43.912Z,15.21
2018-08-06T04:35:43.500Z,15.25
2018-08-06T04:36:44.023Z,15.27
2018-08-06T04:37:43.696Z,15.28
2018-08-06T04:38:43.121Z,15.29
2018-08-06T04:39:43.657Z,15.25
2018-08-06T04:40:43.369Z,15.22
2018-08-06T04:42:05.415Z,15.27
2018-08-06T04:43:06.082Z,15.29
2018-08-06T04:44:05.865Z,15.31
2018-08-06T04:45:05.763Z,15.33
2018-08-06T04:46:06.776Z,15.39
2018-08-06T04:47:06.376Z,15.49
2018-08-06T04:48:05.983Z,15.47
2018-08-06T04:49:05.731Z,15.46
2018-08-06T04:50:06.506Z,15.42
2018-08-06T04:51:05.935Z,15.46
2018-08-06T04:52:05.723Z,15.52
2018-08-06T04:53:26.729Z,15.51
2018-08-06T04:54:27.120Z,15.51
2018-08-06T04:55:27.051Z,15.49
2018-08-06T04:56:27.710Z,15.47
2018-08-06T04:57:27.242Z,15.49
2018-08-06T04:58:26.981Z,15.49
2018-08-06T04:59:27.497Z,15.51
2018-08-06T05:00:27.037Z,15.55
2018-08-06T05:01:27.616Z,15.54
2018-08-06T05:02:27.364Z,15.55
2018-08-06T05:03:27.589Z,15.52
2018-08-06T05:04:27.344Z,15.51
2018-08-06T05:05:27.087Z,15.52
2018-08-06T05:06:27.770Z,15.58
2018-08-06T05:07:27.175Z,15.61
2018-08-06T05:08:26.811Z,15.62
2018-08-06T05:09:27.468Z,15.62
2018-08-06T05:10:27.642Z,15.65
2018-08-06T05:11:27.505Z,15.70
2018-08-06T05:12:27.476Z,15.72
2018-08-06T05:13:27.247Z,15.73
2018-08-06T05:14:26.893Z,15.72
2018-08-06T05:15:27.402Z,15.72
2018-08-06T05:16:49.208Z,15.76
2018-08-06T05:17:48.889Z,15.77
2018-08-06T05:18:49.741Z,15.79
2018-08-06T05:19:49.751Z,15.83
2018-08-06T05:20:49.787Z,15.86
2018-08-06T05:21:51.772Z,15.90
2018-08-06T05:22:50.381Z,15.92
2018-08-06T05:23:49.959Z,15.94
2018-08-06T05:24:49.930Z,15.98
2018-08-06T05:25:49.858Z,16.08
2018-08-06T05:26:49.660Z,16.13
2018-08-06T05:28:10.973Z,16.17
2018-08-06T05:29:11.799Z,16.20
2018-08-06T05:30:34.501Z,16.21
2018-08-06T05:31:33.133Z,16.21
2018-08-06T05:32:34.301Z,16.28
2018-08-06T05:33:35.834Z,16.43
2018-08-06T05:34:33.315Z,16.79
2018-08-06T05:35:33.945Z,17.29
2018-08-06T05:36:33.700Z,17.72
2018-08-06T05:37:35.366Z,18.10
2018-08-06T05:38:35.020Z,18.47
2018-08-06T05:39:33.740Z,18.81
2018-08-06T05:40:35.114Z,19.11
2018-08-06T05:41:33.601Z,19.47
2018-08-06T05:42:34.927Z,19.69
2018-08-06T05:43:33.829Z,19.88
2018-08-06T05:44:33.565Z,20.10
2018-08-06T05:45:35.399Z,20.29
2018-08-06T05:46:33.298Z,20.52
2018-08-06T05:47:33.920Z,20.75
2018-08-06T05:48:34.058Z,20.82
2018-08-06T05:49:33.933Z,20.95
2018-08-06T05:50:33.714Z,20.99
2018-08-06T05:51:33.451Z,21.15
2018-08-06T05:52:33.319Z,21.22
2018-08-06T05:53:43.088Z,21.33
2018-08-06T05:54:56.018Z,21.33
2018-08-06T05:55:58.531Z,21.52
2018-08-06T05:56:57.434Z,21.75
2018-08-06T05:57:56.551Z,21.93
2018-08-06T05:59:20.063Z,22.08
2018-08-06T06:00:21.683Z,22.26
2018-08-06T06:01:46.369Z,22.50
2018-08-06T06:02:46.316Z,22.63
2018-08-06T06:03:44.386Z,22.70
2018-08-06T06:04:45.555Z,22.87
2018-08-06T06:06:06.452Z,23.08
2018-08-06T06:07:07.058Z,23.31
2018-08-06T06:08:07.765Z,23.37
2018-08-06T06:09:06.767Z,23.50
2018-08-06T06:10:06.484Z,23.47
2018-08-06T06:11:07.560Z,23.51
2018-08-06T06:12:07.167Z,23.61
2018-08-06T06:13:07.114Z,23.65
2018-08-06T06:14:07.072Z,23.63
2018-08-06T06:15:06.630Z,23.61
2018-08-06T06:16:07.304Z,23.59
2018-08-06T06:17:06.867Z,23.59
2018-08-06T06:18:09.015Z,23.69
2018-08-06T06:19:10.715Z,23.83
2018-08-06T06:20:06.460Z,23.88
2018-08-06T06:21:12.087Z,23.86
2018-08-06T06:22:28.660Z,23.86
2018-08-06T06:23:29.365Z,24.05
2018-08-06T06:25:16.461Z,24.36
2018-08-06T06:27:02.296Z,24.86
2018-08-06T06:28:07.740Z,25.04
2018-08-06T06:29:01.814Z,25.01
2018-08-06T06:30:00.666Z,24.98
2018-08-06T06:31:01.777Z,25.08
2018-08-06T06:32:02.411Z,25.10
2018-08-06T06:33:01.970Z,25.29
2018-08-06T06:34:02.233Z,25.38
2018-08-06T06:35:01.345Z,25.50
2018-08-06T06:36:02.420Z,25.54
2018-08-06T06:37:01.597Z,25.75
2018-08-06T06:38:01.280Z,25.80
2018-08-06T06:39:01.668Z,25.69
2018-08-06T06:40:01.002Z,25.78
2018-08-06T06:41:02.022Z,25.83
2018-08-06T06:42:02.783Z,25.91
2018-08-06T06:43:00.740Z,26.18
2018-08-06T06:44:01.147Z,26.51
2018-08-06T06:45:24.118Z,26.96
2018-08-06T06:46:24.771Z,27.08
2018-08-06T06:47:24.560Z,27.11
2018-08-06T06:48:25.172Z,27.32
2018-08-06T06:49:23.884Z,27.55
2018-08-06T06:50:26.697Z,27.82
2018-08-06T06:52:08.401Z,27.74
2018-08-06T06:53:09.461Z,27.67
2018-08-06T06:54:09.058Z,27.67
2018-08-06T06:55:10.682Z,27.65
2018-08-06T06:56:09.431Z,27.51
2018-08-06T06:57:10.142Z,27.55
2018-08-06T06:58:10.022Z,27.67
2018-08-06T06:59:08.810Z,27.82
2018-08-06T07:00:09.390Z,28.11
2018-08-06T07:01:09.889Z,28.22
2018-08-06T07:02:30.072Z,28.52
2018-08-06T07:03:31.155Z,28.67
2018-08-06T07:04:35.313Z,28.84
2018-08-06T07:05:32.273Z,28.78
2018-08-06T07:06:31.183Z,28.96
2018-08-06T07:07:31.021Z,29.17
2018-08-06T07:08:30.992Z,29.36
2018-08-06T07:09:31.064Z,29.56
2018-08-06T07:10:30.859Z,29.68
2018-08-06T07:11:30.522Z,29.65
2018-08-06T07:12:30.202Z,29.63
2018-08-06T07:13:31.268Z,29.75
2018-08-06T07:14:31.153Z,29.91
2018-08-06T07:15:31.740Z,29.82
2018-08-06T07:16:30.560Z,29.65
2018-08-06T07:17:52.097Z,29.68
2018-08-06T07:18:55.440Z,29.91
2018-08-06T07:19:52.351Z,30.13
2018-08-06T07:20:52.247Z,30.23
2018-08-06T07:21:55.077Z,30.30
2018-08-06T07:22:53.077Z,30.39
2018-08-06T07:24:39.920Z,30.43
2018-08-06T07:25:44.071Z,30.44
2018-08-06T07:26:40.968Z,30.34
2018-08-06T07:28:02.687Z,30.43
2018-08-06T07:29:02.525Z,30.57
2018-08-06T07:30:23.678Z,30.51
2018-08-06T07:31:24.475Z,30.46
2018-08-06T07:32:25.083Z,30.69
2018-08-06T07:33:26.563Z,30.91
2018-08-06T07:34:24.463Z,31.03
2018-08-06T07:35:24.191Z,30.92
2018-08-06T07:36:45.609Z,31.03
2018-08-06T07:38:06.871Z,31.02
2018-08-06T07:39:30.304Z,31.31
2018-08-06T07:40:30.210Z,31.74
2018-08-06T07:41:30.982Z,32.04
2018-08-06T07:42:52.247Z,32.29
2018-08-06T07:43:52.938Z,32.45
2018-08-06T07:44:52.904Z,32.68
2018-08-06T07:45:52.819Z,32.86
2018-08-06T07:47:14.129Z,32.74
2018-08-06T07:48:15.461Z,32.73
2018-08-06T07:49:36.313Z,32.75
2018-08-06T07:50:36.371Z,32.83
2018-08-06T07:52:00.472Z,32.74
2018-08-06T07:52:59.534Z,32.86
2018-08-06T07:54:42.873Z,33.15
2018-08-06T07:55:43.841Z,32.97
2018-08-06T07:56:42.708Z,32.73
2018-08-06T07:57:43.439Z,32.86
2018-08-06T07:58:43.017Z,33.00
2018-08-06T07:59:44.886Z,33.08
2018-08-06T08:00:42.594Z,33.45
2018-08-06T08:02:05.120Z,33.80
2018-08-06T08:03:05.910Z,33.89
2018-08-06T08:04:06.481Z,33.71
2018-08-06T08:05:05.432Z,33.59
2018-08-06T08:06:05.372Z,33.83
2018-08-06T08:07:05.159Z,34.03
2018-08-06T08:08:26.346Z,34.16
2018-08-06T08:09:27.390Z,34.24
2018-08-06T08:10:27.320Z,34.39
2018-08-06T08:11:27.025Z,34.40
2018-08-06T08:12:26.896Z,34.48
2018-08-06T08:13:26.737Z,34.39
2018-08-06T08:14:27.746Z,34.48
2018-08-06T08:15:26.508Z,34.60
2018-08-06T08:16:27.422Z,34.61
2018-08-06T08:17:27.095Z,34.55
2018-08-06T08:18:26.991Z,34.11
2018-08-06T08:19:26.931Z,33.74
2018-08-06T08:20:27.152Z,33.57
2018-08-06T08:21:27.165Z,33.61
2018-08-06T08:22:27.628Z,33.52
2018-08-06T08:23:26.864Z,33.37
2018-08-06T08:24:26.800Z,33.49
2018-08-06T08:25:26.808Z,33.65
2018-08-06T08:26:26.651Z,33.71
2018-08-06T08:27:26.556Z,33.96
2018-08-06T08:28:27.181Z,34.21
2018-08-06T08:29:27.149Z,34.48
2018-08-06T08:30:27.131Z,34.55
2018-08-06T08:31:26.926Z,34.90
2018-08-06T08:32:28.924Z,35.24
2018-08-06T08:33:48.846Z,35.31
2018-08-06T08:34:49.793Z,35.11
2018-08-06T08:35:49.509Z,35.05
2018-08-06T08:36:49.289Z,34.96
2018-08-06T08:37:51.069Z,34.88
2018-08-06T08:39:32.534Z,35.24
2018-08-06T08:40:33.510Z,35.42
2018-08-06T08:41:33.613Z,35.66
2018-08-06T08:42:32.593Z,35.88
2018-08-06T08:43:32.335Z,35.98
2018-08-06T08:44:33.871Z,36.18
2018-08-06T08:45:32.734Z,36.07
2018-08-06T08:46:32.745Z,36.12
2018-08-06T08:47:33.159Z,36.05
2018-08-06T08:48:33.698Z,35.97
2018-08-06T08:49:33.629Z,35.64
2018-08-06T08:50:34.331Z,35.34
2018-08-06T08:51:33.247Z,35.49
2018-08-06T08:52:34.170Z,35.24
2018-08-06T08:53:33.482Z,35.37
2018-08-06T08:54:55.557Z,35.78
2018-08-06T08:55:55.830Z,35.61
2018-08-06T08:56:55.814Z,35.51
2018-08-06T08:57:55.625Z,35.80
2018-08-06T08:59:17.531Z,35.80
2018-08-06T09:00:18.761Z,35.79
2018-08-06T09:01:18.797Z,36.00
2018-08-06T09:02:19.050Z,36.27
2018-08-06T09:03:18.603Z,36.37
2018-08-06T09:04:18.489Z,36.52
2018-08-06T09:05:18.672Z,36.00
2018-08-06T09:06:38.893Z,36.12
2018-08-06T09:07:39.512Z,36.23
2018-08-06T09:08:49.881Z,36.37
2018-08-06T09:10:39.895Z,36.61
2018-08-06T09:11:39.119Z,36.64
2018-08-06T09:12:59.324Z,36.84
2018-08-06T09:13:59.122Z,37.14
2018-08-06T09:15:06.165Z,37.45
2018-08-06T09:15:59.486Z,37.42
2018-08-06T09:16:59.465Z,37.45
2018-08-06T09:18:00.141Z,36.93
2018-08-06T09:19:00.126Z,36.36
2018-08-06T09:20:00.194Z,36.14
2018-08-06T09:20:59.908Z,36.30
2018-08-06T09:22:42.982Z,36.39
2018-08-06T09:23:44.426Z,36.25
2018-08-06T09:24:43.256Z,36.43
2018-08-06T09:25:43.173Z,36.35
2018-08-06T09:26:43.154Z,36.72
2018-08-06T09:27:42.842Z,36.98
2018-08-06T09:28:43.688Z,36.93
2018-08-06T09:29:43.397Z,37.25
2018-08-06T09:30:43.408Z,37.13
2018-08-06T09:31:43.562Z,37.11
2018-08-06T09:32:45.855Z,36.83
2018-08-06T09:33:43.560Z,36.99
2018-08-06T09:34:43.200Z,37.13
2018-08-06T09:35:42.963Z,37.58
2018-08-06T09:36:42.797Z,38.05
2018-08-06T09:38:05.065Z,37.86
2018-08-06T09:39:05.676Z,37.94
2018-08-06T09:40:05.888Z,37.67
2018-08-06T09:41:06.349Z,37.51
2018-08-06T09:42:06.894Z,37.84
2018-08-06T09:43:27.296Z,37.89
2018-08-06T09:44:27.992Z,37.78
2018-08-06T09:45:28.263Z,37.75
2018-08-06T09:46:28.347Z,37.93
2018-08-06T09:47:50.079Z,38.34
2018-08-06T09:48:50.033Z,38.23
2018-08-06T09:49:49.741Z,38.34
2018-08-06T09:50:50.421Z,38.68
2018-08-06T09:51:50.153Z,38.84
2018-08-06T09:52:50.544Z,38.84
2018-08-06T09:53:50.225Z,39.07
2018-08-06T09:54:49.870Z,39.11
2018-08-06T09:56:12.515Z,39.21
2018-08-06T09:57:12.053Z,39.40
2018-08-06T09:58:11.858Z,39.71
2018-08-06T10:00:18.172Z,39.75
2018-08-06T10:01:17.878Z,40.05
2018-08-06T10:02:17.991Z,40.24
2018-08-06T10:03:17.893Z,40.47
2018-08-06T10:04:17.948Z,40.28
2018-08-06T10:05:17.801Z,39.87
2018-08-06T10:06:17.734Z,39.36
2018-08-06T10:07:19.019Z,39.17
2018-08-06T10:08:17.793Z,38.84
2018-08-06T10:09:18.844Z,38.82
2018-08-06T10:10:18.586Z,38.60
2018-08-06T10:11:18.981Z,38.64
2018-08-06T10:12:17.810Z,38.96
2018-08-06T10:13:17.513Z,39.30
2018-08-06T10:14:18.195Z,39.70
2018-08-06T10:15:18.094Z,39.75
2018-08-06T10:16:17.979Z,39.80
2018-08-06T10:17:18.136Z,39.85
2018-08-06T10:18:17.878Z,39.18
2018-08-06T10:19:18.159Z,39.17
2018-08-06T10:20:18.203Z,39.58
2018-08-06T10:21:18.719Z,39.94
2018-08-06T10:22:18.458Z,39.97
2018-08-06T10:23:18.295Z,40.24
2018-08-06T10:24:39.721Z,40.38
2018-08-06T10:25:40.409Z,39.92
2018-08-06T10:27:01.940Z,40.38
2018-08-06T10:28:01.614Z,40.61
2018-08-06T10:29:24.770Z,40.87
2018-08-06T10:30:26.297Z,39.94
2018-08-06T10:31:25.121Z,39.77
2018-08-06T10:32:46.539Z,39.90
2018-08-06T10:33:46.662Z,40.30
2018-08-06T10:34:46.461Z,40.66
2018-08-06T10:35:47.361Z,40.65
2018-08-06T10:36:48.386Z,40.23
2018-08-06T10:38:08.114Z,39.41
2018-08-06T10:39:07.887Z,39.29
2018-08-06T10:40:29.268Z,39.86
2018-08-06T10:41:50.581Z,40.33
2018-08-06T10:42:51.637Z,40.34
2018-08-06T10:43:51.591Z,40.56
2018-08-06T10:44:51.467Z,40.49
2018-08-06T10:45:51.304Z,40.82
2018-08-06T10:47:11.798Z,40.26
2018-08-06T10:48:12.607Z,40.12
2018-08-06T10:49:14.930Z,40.47
2018-08-06T10:50:13.119Z,40.68
2018-08-06T10:51:12.224Z,40.11
2018-08-06T10:52:12.245Z,40.18
2018-08-06T10:53:12.139Z,40.59
2018-08-06T10:54:32.774Z,40.38
2018-08-06T10:55:32.999Z,40.23
2018-08-06T10:56:32.839Z,40.33
2018-08-06T10:57:33.067Z,40.31
2018-08-06T10:58:54.767Z,40.18
2018-08-06T10:59:55.446Z,39.86
2018-08-06T11:00:55.733Z,39.86
2018-08-06T11:01:55.508Z,40.15
2018-08-06T11:02:55.647Z,40.46
2018-08-06T11:03:55.577Z,40.77
2018-08-06T11:04:55.338Z,41.07
2018-08-06T11:05:55.265Z,41.25
2018-08-06T11:06:55.214Z,41.38
2018-08-06T11:07:55.617Z,41.75
2018-08-06T11:08:55.745Z,42.07
2018-08-06T11:09:55.633Z,42.28
2018-08-06T11:10:55.601Z,42.57
2018-08-06T11:11:55.478Z,42.81
2018-08-06T11:12:55.462Z,42.85
2018-08-06T11:13:55.229Z,42.31
2018-08-06T11:14:55.103Z,42.10
2018-08-06T11:15:55.075Z,42.10
2018-08-06T11:16:54.986Z,42.26
2018-08-06T11:17:54.914Z,42.51
2018-08-06T11:19:15.584Z,42.63
2018-08-06T11:20:37.290Z,43.06
2018-08-06T11:21:38.259Z,42.20
2018-08-06T11:22:38.264Z,42.09
2018-08-06T11:23:38.038Z,41.99
2018-08-06T11:24:37.897Z,42.20
2018-08-06T11:25:37.757Z,42.36
2018-08-06T11:26:37.709Z,42.14
2018-08-06T11:27:37.690Z,42.07
2018-08-06T11:28:37.584Z,42.13
2018-08-06T11:29:39.267Z,42.13
2018-08-06T11:30:38.000Z,41.83
2018-08-06T11:31:37.822Z,41.99
2018-08-06T11:32:37.728Z,42.17
2018-08-06T11:33:37.469Z,42.33
2018-08-06T11:34:38.116Z,42.58
2018-08-06T11:35:37.835Z,42.85
2018-08-06T11:36:37.649Z,42.65
2018-08-06T11:37:37.465Z,42.20
2018-08-06T11:38:38.129Z,42.16
2018-08-06T11:39:37.803Z,42.38
2018-08-06T11:40:37.707Z,42.84
2018-08-06T11:42:19.024Z,42.81
2018-08-06T11:43:19.789Z,43.20
2018-08-06T11:44:19.525Z,43.42
2018-08-06T11:45:19.400Z,43.65
2018-08-06T11:46:19.446Z,43.60
2018-08-06T11:47:19.207Z,43.06
2018-08-06T11:48:19.886Z,43.15
2018-08-06T11:49:19.737Z,43.55
2018-08-06T11:50:19.824Z,43.74
2018-08-06T11:51:19.780Z,43.83
2018-08-06T11:52:40.306Z,43.15
2018-08-06T11:53:40.150Z,43.23
2018-08-06T11:54:41.024Z,43.18
2018-08-06T11:55:40.863Z,43.42
2018-08-06T11:56:41.120Z,43.42
2018-08-06T11:57:40.149Z,43.15
2018-08-06T11:58:40.819Z,42.32
2018-08-06T11:59:40.682Z,41.87
2018-08-06T12:01:00.987Z,41.99
2018-08-06T12:02:00.929Z,41.80
2018-08-06T12:03:00.985Z,41.87
2018-08-06T12:04:00.880Z,41.87
2018-08-06T12:05:03.188Z,41.80
2018-08-06T12:06:00.975Z,41.92
2018-08-06T12:07:00.793Z,42.09
2018-08-06T12:08:42.955Z,42.50
2018-08-06T12:09:44.584Z,42.69
2018-08-06T12:10:43.334Z,42.85
2018-08-06T12:11:43.804Z,42.92
2018-08-06T12:12:43.428Z,42.95
2018-08-06T12:13:43.357Z,43.03
2018-08-06T12:14:43.333Z,43.18
2018-08-06T12:15:43.149Z,43.20
2018-08-06T12:16:43.200Z,43.19
2018-08-06T12:18:03.387Z,43.42
2018-08-06T12:19:04.316Z,43.57
2018-08-06T12:20:04.320Z,43.04
2018-08-06T12:21:04.072Z,42.69
2018-08-06T12:22:45.465Z,42.47
2018-08-06T12:23:45.402Z,42.53
2018-08-06T12:25:06.292Z,42.74
2018-08-06T12:26:07.214Z,42.73
2018-08-06T12:27:06.409Z,42.67
2018-08-06T12:28:07.217Z,42.65
2018-08-06T12:29:06.947Z,42.79
2018-08-06T12:30:06.651Z,43.03
2018-08-06T12:31:06.591Z,43.18
2018-08-06T12:32:06.479Z,43.23
2018-08-06T12:33:06.263Z,43.28
2018-08-06T12:34:07.015Z,43.19
2018-08-06T12:35:27.612Z,43.19
2018-08-06T12:36:27.500Z,43.24
2018-08-06T12:37:27.358Z,43.23
2018-08-06T12:38:49.051Z,42.99
2018-08-06T12:39:49.797Z,42.69
2018-08-06T12:40:49.740Z,42.47
2018-08-06T12:42:30.225Z,42.58
2018-08-06T12:43:31.185Z,42.76
2018-08-06T12:44:31.177Z,42.66
2018-08-06T12:45:31.279Z,42.43
2018-08-06T12:46:31.099Z,42.39
2018-08-06T12:47:51.231Z,42.43
2018-08-06T12:48:52.073Z,42.43
2018-08-06T12:49:51.788Z,42.32
2018-08-06T12:50:51.651Z,42.07
2018-08-06T12:51:51.557Z,42.07
2018-08-06T12:52:51.509Z,42.21
2018-08-06T12:54:12.163Z,41.56
2018-08-06T12:55:12.000Z,41.45
2018-08-06T12:56:12.955Z,41.68
2018-08-06T12:57:13.197Z,41.65
2018-08-06T12:58:13.097Z,41.55
2018-08-06T12:59:12.768Z,41.68
2018-08-06T13:00:12.562Z,42.01
2018-08-06T13:01:12.562Z,42.10
2018-08-06T13:02:12.937Z,42.25
2018-08-06T13:03:12.745Z,42.51
2018-08-06T13:04:12.567Z,42.69
2018-08-06T13:05:33.108Z,42.70
2018-08-06T13:06:34.713Z,42.54
2018-08-06T13:07:33.499Z,42.17
2018-08-06T13:08:33.367Z,41.88
2018-08-06T13:09:33.240Z,41.95
2018-08-06T13:10:53.868Z,41.85
2018-08-06T13:11:54.809Z,41.53
2018-08-06T13:12:54.584Z,41.44
2018-08-06T13:13:54.370Z,41.49
2018-08-06T13:14:54.259Z,41.52
2018-08-06T13:16:14.973Z,41.72
2018-08-06T13:17:15.828Z,41.90
2018-08-06T13:18:15.566Z,42.02
2018-08-06T13:19:15.778Z,42.07
2018-08-06T13:20:15.731Z,42.24
2018-08-06T13:21:15.857Z,42.31
2018-08-06T13:22:15.663Z,42.43
2018-08-06T13:23:15.868Z,42.43
2018-08-06T13:24:15.635Z,42.51
2018-08-06T13:25:15.593Z,42.63
2018-08-06T13:26:15.754Z,42.60
2018-08-06T13:27:57.119Z,42.55
2018-08-06T13:28:57.891Z,42.29
2018-08-06T13:29:57.831Z,42.07
2018-08-06T13:31:18.532Z,41.80
2018-08-06T13:32:18.515Z,41.41
2018-08-06T13:33:19.531Z,41.43
2018-08-06T13:34:19.284Z,41.56
2018-08-06T13:35:19.013Z,41.80
2018-08-06T13:36:18.710Z,41.90
2018-08-06T13:37:18.622Z,41.98
2018-08-06T13:38:18.481Z,41.98
2018-08-06T13:40:00.665Z,42.13
2018-08-06T13:41:22.394Z,42.21
2018-08-06T13:42:22.295Z,42.12
2018-08-06T13:43:22.231Z,42.04